This is the latest recevied weather packets stored in our database for station/object KF5JED-13. If no packets are shown the sender has not sent any weather packets the latest 1 day(s).
| Time | Temp. | Humidity | Pressure | Rain* | Wind** | Luminosity | Snow |
|---|---|---|---|---|---|---|---|
| 1778034120 | 11.67° C | 55% | 1011.2 hPa | 0 mm | 4.47 m/s, 84° | 0 W/m² | - |
| 1778033817 | 12.22° C | 55% | 1011 hPa | 0 mm | 5.36 m/s, 88° | 0 W/m² | - |
| 1778033514 | 12.22° C | 55% | 1010.6 hPa | 0 mm | 3.58 m/s, 67° | 0 W/m² | - |
| 1778033211 | 12.22° C | 55% | 1010.2 hPa | 0 mm | 7.6 m/s, 74° | 0 W/m² | - |
| 1778032909 | 12.78° C | 55% | 1010.8 hPa | 0 mm | 5.36 m/s, 66° | 0 W/m² | - |
| 1778032606 | 12.78° C | 53% | 1010.7 hPa | 0 mm | 6.26 m/s, 62° | 0 W/m² | - |
| 1778032304 | 12.78° C | 53% | 1010.7 hPa | 0 mm | 5.36 m/s, 57° | 0 W/m² | - |
| 1778032001 | 13.33° C | 52% | 1010.6 hPa | 0 mm | 4.02 m/s, 64° | 0 W/m² | - |
| 1778031696 | 13.33° C | 51% | 1010.8 hPa | 0 mm | 7.6 m/s, 63° | 1 W/m² | - |
| 1778031395 | 13.33° C | 51% | 1010.4 hPa | 0 mm | 4.02 m/s, 32° | 3 W/m² | - |
| 1778031092 | 13.33° C | 50% | 1010 hPa | 0 mm | 4.47 m/s, 41° | 5 W/m² | - |
| 1778030788 | 13.33° C | 50% | 1009.8 hPa | 0 mm | 4.02 m/s, 45° | 8 W/m² | - |
| 1778030484 | 13.89° C | 50% | 1009.7 hPa | 0 mm | 3.58 m/s, 34° | 13 W/m² | - |
| 1778030182 | 13.89° C | 50% | 1009.7 hPa | 0 mm | 4.47 m/s, 51° | 17 W/m² | - |
| 1778029878 | 13.89° C | 49% | 1009.6 hPa | 0 mm | 5.81 m/s, 53° | 22 W/m² | - |
| 1778029577 | 13.89° C | 49% | 1009.3 hPa | 0 mm | 6.26 m/s, 53° | 27 W/m² | - |
| 1778029274 | 14.44° C | 48% | 1009.4 hPa | 0 mm | 5.36 m/s, 62° | 35 W/m² | - |
| 1778028971 | 14.44° C | 48% | 1009.1 hPa | 0 mm | 4.47 m/s, 48° | 39 W/m² | - |
| 1778028667 | 14.44° C | 48% | 1008.8 hPa | 0 mm | 6.71 m/s, 57° | 47 W/m² | - |
| 1778028364 | 14.44° C | 47% | 1009 hPa | 0 mm | 8.49 m/s, 70° | 53 W/m² | - |
| 1778028061 | 15° C | 47% | 1008.9 hPa | 0 mm | 5.81 m/s, 46° | 63 W/m² | - |
| 1778027757 | 15° C | 46% | 1008.8 hPa | 0 mm | 4.92 m/s, 52° | 68 W/m² | - |
| 1778027453 | 15° C | 46% | 1008.4 hPa | 0 mm | 8.49 m/s, 64° | 88 W/m² | - |
| 1778027149 | 15.56° C | 45% | 1008.6 hPa | 0 mm | 7.15 m/s, 69° | 101 W/m² | - |
| 1778026845 | 15.56° C | 45% | 1008.6 hPa | 0 mm | 6.71 m/s, 72° | 112 W/m² | - |
* Rain latest hour (hover to see other rain measurements)
** Current wind speed in m/s (hover to see current wind gust speed)